createdAt,value
2019-05-06T00:00:26.311Z,2.70
2019-05-06T00:02:55.543Z,3.60
2019-05-06T00:05:25.591Z,3.40
2019-05-06T00:07:55.059Z,2.77
2019-05-06T00:10:27.843Z,3.80
2019-05-06T00:12:57.155Z,3.00
2019-05-06T00:15:26.858Z,2.67
2019-05-06T00:17:56.078Z,2.60
2019-05-06T00:20:25.583Z,2.80
2019-05-06T00:22:57.975Z,3.00
2019-05-06T00:25:35.843Z,4.17
2019-05-06T00:28:24.589Z,2.87
2019-05-06T00:31:08.597Z,2.30
2019-05-06T00:33:26.463Z,2.50
2019-05-06T00:35:55.776Z,2.60
2019-05-06T00:38:25.287Z,2.33
2019-05-06T00:40:58.161Z,2.67
2019-05-06T00:43:27.646Z,2.70
2019-05-06T00:45:57.094Z,2.50
2019-05-06T00:48:26.599Z,2.80
2019-05-06T00:50:55.919Z,2.80
2019-05-06T00:53:26.819Z,2.43
2019-05-06T00:55:55.997Z,2.40
2019-05-06T00:58:25.232Z,2.73
2019-05-06T01:00:54.677Z,2.70
2019-05-06T01:03:24.104Z,2.40
2019-05-06T01:05:54.245Z,2.80
2019-05-06T01:08:24.285Z,3.37
2019-05-06T01:10:54.479Z,3.50
2019-05-06T01:13:30.484Z,2.30
2019-05-06T01:15:59.675Z,2.47
2019-05-06T01:18:28.912Z,4.60
2019-05-06T01:21:10.399Z,2.63
2019-05-06T01:23:44.229Z,2.50
2019-05-06T01:26:15.145Z,3.20
2019-05-06T01:28:45.983Z,3.27
2019-05-06T01:31:15.243Z,2.53
2019-05-06T01:33:45.294Z,2.43
2019-05-06T01:36:14.653Z,2.93
2019-05-06T01:39:06.148Z,2.30
2019-05-06T01:41:54.297Z,3.07
2019-05-06T01:44:24.433Z,2.60
2019-05-06T01:46:54.192Z,3.37
2019-05-06T01:49:24.539Z,4.03
2019-05-06T01:51:54.597Z,4.87
2019-05-06T01:54:24.929Z,2.50
2019-05-06T01:56:54.655Z,3.13
2019-05-06T01:59:24.640Z,3.73
2019-05-06T02:02:00.082Z,3.30
2019-05-06T02:27:16.205Z,2.57
2019-05-06T02:30:00.135Z,4.93
2019-05-06T02:32:39.139Z,2.70
2019-05-06T02:35:27.456Z,2.60
2019-05-06T02:37:56.630Z,3.30
2019-05-06T02:40:27.485Z,4.47
2019-05-06T02:42:56.713Z,3.70
2019-05-06T02:45:26.027Z,3.03
2019-05-06T02:48:23.204Z,3.63
2019-05-06T02:51:17.411Z,2.80
2019-05-06T02:53:46.912Z,3.23
2019-05-06T02:56:16.153Z,3.00
2019-05-06T02:58:45.327Z,3.97
2019-05-06T03:01:14.567Z,2.93
2019-05-06T03:03:44.020Z,3.67
2019-05-06T03:06:13.397Z,3.13
2019-05-06T03:08:43.450Z,3.47
2019-05-06T03:11:13.757Z,3.20
2019-05-06T03:13:44.183Z,3.40
2019-05-06T03:16:14.357Z,2.83
2019-05-06T03:18:44.041Z,2.90
2019-05-06T03:21:36.711Z,2.77
2019-05-06T03:24:23.715Z,3.53
2019-05-06T03:26:56.750Z,2.93
2019-05-06T03:29:25.327Z,3.37
2019-05-06T03:31:56.306Z,3.37
2019-05-06T03:34:48.994Z,2.60
2019-05-06T03:36:57.341Z,2.67
2019-05-06T03:39:26.600Z,2.87
2019-05-06T03:41:56.329Z,3.60
2019-05-06T03:44:25.865Z,4.30
2019-05-06T03:47:14.032Z,3.50
2019-05-06T03:49:49.781Z,2.73
2019-05-06T03:52:16.954Z,2.73
2019-05-06T03:54:47.281Z,2.97
2019-05-06T03:57:18.053Z,3.77
2019-05-06T03:59:49.037Z,3.27
2019-05-06T04:02:18.680Z,3.40
2019-05-06T04:04:47.957Z,3.27
2019-05-06T04:07:18.218Z,3.10
2019-05-06T04:09:47.700Z,4.13
2019-05-06T04:12:18.281Z,3.83
2019-05-06T04:14:47.554Z,3.27
2019-05-06T04:17:36.954Z,3.27
2019-05-06T04:20:34.741Z,3.47
2019-05-06T04:23:13.370Z,4.13
2019-05-06T04:25:54.005Z,3.67
2019-05-06T04:28:25.830Z,4.60
2019-05-06T04:30:55.364Z,3.67
2019-05-06T04:33:24.765Z,5.13
2019-05-06T04:35:54.389Z,3.60
2019-05-06T04:38:24.219Z,3.73
2019-05-06T04:40:54.366Z,3.50
2019-05-06T04:43:26.887Z,4.57
2019-05-06T04:45:54.545Z,3.70
2019-05-06T04:48:24.194Z,3.80
2019-05-06T04:50:54.205Z,6.27
2019-05-06T04:53:26.861Z,7.00
2019-05-06T04:55:54.994Z,6.23
2019-05-06T04:58:24.326Z,3.80
2019-05-06T05:00:53.973Z,4.53
2019-05-06T05:03:23.224Z,4.03
2019-05-06T05:05:53.331Z,3.93
2019-05-06T05:08:26.754Z,4.87
2019-05-06T05:11:04.177Z,4.37
2019-05-06T05:13:53.215Z,5.80
2019-05-06T05:16:59.272Z,4.13
2019-05-06T05:19:29.868Z,5.60
2019-05-06T05:22:06.038Z,3.73
2019-05-06T05:24:36.475Z,4.43
2019-05-06T05:27:06.269Z,4.53
2019-05-06T05:29:35.745Z,5.03
2019-05-06T05:32:05.445Z,4.27
2019-05-06T05:34:39.919Z,6.67
2019-05-06T05:37:06.117Z,4.83
2019-05-06T05:39:35.494Z,4.43
2019-05-06T05:42:14.145Z,5.90
2019-05-06T05:44:44.003Z,3.83
2019-05-06T05:47:13.326Z,4.77
2019-05-06T05:50:02.815Z,5.23
2019-05-06T05:52:32.906Z,3.70
2019-05-06T05:55:02.907Z,4.10
2019-05-06T05:57:33.018Z,4.43
2019-05-06T06:00:03.902Z,4.13
2019-05-06T06:02:33.861Z,3.57
2019-05-06T06:05:03.126Z,5.33
2019-05-06T06:07:32.865Z,5.23
2019-05-06T06:10:13.361Z,4.57
2019-05-06T06:12:42.950Z,4.27
2019-05-06T06:15:29.073Z,4.87
2019-05-06T06:18:29.718Z,5.87
2019-05-06T06:21:18.714Z,4.50
2019-05-06T06:23:42.658Z,3.67
2019-05-06T06:26:12.178Z,6.97
2019-05-06T06:28:42.635Z,4.87
2019-05-06T06:31:36.770Z,3.93
2019-05-06T06:34:24.962Z,6.17
2019-05-06T06:37:13.317Z,3.63
2019-05-06T06:39:44.104Z,4.43
2019-05-06T06:42:13.279Z,3.37
2019-05-06T06:44:42.511Z,5.20
2019-05-06T06:47:12.971Z,3.97
2019-05-06T06:49:42.686Z,4.10
2019-05-06T06:52:14.707Z,4.23
2019-05-06T06:54:43.847Z,4.93
2019-05-06T06:57:34.914Z,4.93
2019-05-06T07:00:12.683Z,4.33
2019-05-06T07:02:46.053Z,6.97
2019-05-06T07:05:42.403Z,6.90
2019-05-06T07:08:12.723Z,6.03
2019-05-06T07:10:45.094Z,18.57
2019-05-06T07:13:16.697Z,6.77
2019-05-06T07:15:46.564Z,5.13
2019-05-06T07:18:16.071Z,4.67
2019-05-06T07:21:05.941Z,4.47
2019-05-06T07:23:36.065Z,5.17
2019-05-06T07:26:05.448Z,3.43
2019-05-06T07:28:34.687Z,3.40
2019-05-06T07:31:17.436Z,3.60
2019-05-06T07:33:35.118Z,2.73
2019-05-06T07:36:04.575Z,3.70
2019-05-06T07:38:34.175Z,5.67
2019-05-06T07:41:14.747Z,3.27
2019-05-06T07:44:08.219Z,3.87
2019-05-06T07:46:44.299Z,3.77
2019-05-06T07:49:13.534Z,5.83
2019-05-06T07:51:42.692Z,6.37
2019-05-06T07:54:12.355Z,2.97
2019-05-06T07:56:42.866Z,3.60
2019-05-06T07:59:12.743Z,2.50
2019-05-06T08:01:43.837Z,4.33
2019-05-06T08:04:13.570Z,5.83
2019-05-06T08:06:43.031Z,5.00
2019-05-06T08:09:13.215Z,4.37
2019-05-06T08:11:42.724Z,3.17
2019-05-06T08:14:13.015Z,1.63
2019-05-06T08:16:48.439Z,3.30
2019-05-06T08:19:17.687Z,5.93
2019-05-06T08:21:49.295Z,5.57
2019-05-06T08:24:18.742Z,6.97
2019-05-06T08:26:47.976Z,2.67
2019-05-06T08:29:17.163Z,4.50
2019-05-06T08:31:46.759Z,3.97
2019-05-06T08:34:16.229Z,2.60
2019-05-06T08:37:09.320Z,2.23
2019-05-06T08:39:38.828Z,2.80
2019-05-06T08:42:08.350Z,3.43
2019-05-06T08:44:37.595Z,2.40
2019-05-06T08:47:06.775Z,2.97
2019-05-06T08:49:53.993Z,10.17
2019-05-06T08:52:27.118Z,3.33
2019-05-06T08:54:57.823Z,8.50
2019-05-06T08:57:27.043Z,4.30
2019-05-06T08:59:56.221Z,4.33
2019-05-06T09:02:25.738Z,2.97
2019-05-06T09:04:55.027Z,5.87
2019-05-06T09:07:24.268Z,3.53
2019-05-06T09:09:53.760Z,3.07
2019-05-06T09:12:23.001Z,2.17
2019-05-06T09:14:53.222Z,4.27
2019-05-06T09:17:22.723Z,6.33
2019-05-06T09:19:53.488Z,8.93
2019-05-06T09:22:23.540Z,2.00
2019-05-06T09:24:53.196Z,4.23
2019-05-06T09:27:42.260Z,3.73
2019-05-06T09:30:16.570Z,4.30
2019-05-06T09:32:45.805Z,7.17
2019-05-06T09:35:15.199Z,3.70
2019-05-06T09:37:45.257Z,2.40
2019-05-06T09:40:14.642Z,3.53
2019-05-06T09:42:43.907Z,2.23
2019-05-06T09:45:13.192Z,5.47
2019-05-06T09:48:03.630Z,4.57
2019-05-06T09:50:38.367Z,2.07
2019-05-06T09:53:09.251Z,3.03
2019-05-06T09:55:57.508Z,4.30
2019-05-06T09:58:27.036Z,2.10
2019-05-06T10:00:57.985Z,4.43
2019-05-06T10:03:27.219Z,5.63
2019-05-06T10:05:56.468Z,3.27
2019-05-06T10:08:25.714Z,3.03
2019-05-06T10:10:59.555Z,4.37
2019-05-06T10:13:26.412Z,3.40
2019-05-06T10:15:57.616Z,2.33
2019-05-06T10:18:26.651Z,3.37
2019-05-06T10:20:56.162Z,2.50
2019-05-06T10:23:25.346Z,4.73
2019-05-06T10:25:54.860Z,2.43
2019-05-06T10:28:41.200Z,3.10
2019-05-06T10:31:12.841Z,2.37
2019-05-06T10:33:59.439Z,3.37
2019-05-06T10:36:34.436Z,2.53
2019-05-06T10:39:08.920Z,3.73
2019-05-06T10:41:42.205Z,4.63
2019-05-06T10:44:22.565Z,4.43
2019-05-06T10:46:52.665Z,4.20
2019-05-06T10:49:22.661Z,5.27
2019-05-06T10:52:08.393Z,4.60
2019-05-06T10:54:37.572Z,2.97
2019-05-06T10:57:29.672Z,4.50
2019-05-06T10:59:59.169Z,2.70
2019-05-06T11:02:45.221Z,3.87
2019-05-06T11:05:14.565Z,4.20
2019-05-06T11:07:43.808Z,2.77
2019-05-06T11:10:24.339Z,2.63
2019-05-06T11:12:44.425Z,2.40
2019-05-06T11:15:14.035Z,4.10
2019-05-06T11:17:43.694Z,3.57
2019-05-06T11:20:14.181Z,2.70
2019-05-06T11:22:43.741Z,2.90
2019-05-06T11:25:13.137Z,5.00
2019-05-06T11:27:45.236Z,2.67
2019-05-06T11:30:27.955Z,2.97
2019-05-06T11:33:13.259Z,3.07
2019-05-06T11:35:58.159Z,3.73
2019-05-06T11:38:27.626Z,3.47
2019-05-06T11:40:57.146Z,3.87
2019-05-06T11:43:26.638Z,3.10
2019-05-06T11:45:56.139Z,3.93
2019-05-06T11:48:25.668Z,2.57
2019-05-06T11:50:58.634Z,6.23
2019-05-06T11:53:27.824Z,2.97
2019-05-06T11:55:57.127Z,3.63
2019-05-06T11:58:43.174Z,4.57
2019-05-06T12:01:18.203Z,4.93
2019-05-06T12:03:47.509Z,3.80
2019-05-06T12:06:16.740Z,4.03
2019-05-06T12:08:45.974Z,3.43
2019-05-06T12:11:15.155Z,4.20
2019-05-06T12:13:44.799Z,3.90
2019-05-06T12:16:14.399Z,4.93
2019-05-06T12:18:43.723Z,8.27
2019-05-06T12:21:18.909Z,3.73
2019-05-06T12:23:45.069Z,3.53
2019-05-06T12:26:14.368Z,3.00
2019-05-06T12:28:43.798Z,2.70
2019-05-06T12:31:13.055Z,5.00
2019-05-06T12:33:46.793Z,5.13
2019-05-06T12:36:20.872Z,3.73
2019-05-06T12:39:08.372Z,3.23
2019-05-06T12:41:46.334Z,2.87
2019-05-06T12:44:15.743Z,4.17
2019-05-06T12:47:03.888Z,2.63
2019-05-06T12:49:33.511Z,2.57
2019-05-06T12:52:02.699Z,3.93
2019-05-06T12:54:33.478Z,2.87
2019-05-06T12:57:03.488Z,2.93
2019-05-06T12:59:32.768Z,3.77
2019-05-06T13:02:02.813Z,3.53
2019-05-06T13:04:49.524Z,2.57
2019-05-06T13:07:03.334Z,2.77
2019-05-06T13:09:33.156Z,3.30
2019-05-06T13:12:03.738Z,2.47
2019-05-06T13:14:33.432Z,3.97
2019-05-06T13:17:02.961Z,3.17
2019-05-06T13:19:32.434Z,6.57
2019-05-06T13:22:03.625Z,3.80
2019-05-06T13:24:32.888Z,4.70
2019-05-06T13:27:02.769Z,4.60
2019-05-06T13:29:35.567Z,2.60
2019-05-06T13:32:06.548Z,2.90
2019-05-06T13:34:35.782Z,3.23
2019-05-06T13:37:05.069Z,3.50
2019-05-06T13:39:34.379Z,3.10
2019-05-06T13:42:03.598Z,4.33
2019-05-06T13:44:32.816Z,4.27
2019-05-06T13:47:03.050Z,2.50
2019-05-06T13:50:03.541Z,3.67
2019-05-06T13:52:38.367Z,4.43
2019-05-06T13:55:07.789Z,3.00
2019-05-06T13:57:39.255Z,3.80
2019-05-06T14:00:09.706Z,4.20
2019-05-06T14:02:53.679Z,2.87
2019-05-06T14:05:23.271Z,2.83
2019-05-06T14:07:52.960Z,3.33
2019-05-06T14:10:22.365Z,2.97
2019-05-06T14:12:53.162Z,4.80
2019-05-06T14:15:23.348Z,3.17
2019-05-06T14:17:53.396Z,3.70
2019-05-06T14:20:22.717Z,5.87
2019-05-06T14:22:52.608Z,3.27
2019-05-06T14:25:39.539Z,4.30
2019-05-06T14:28:26.481Z,3.10
2019-05-06T14:30:59.661Z,4.10
2019-05-06T14:33:29.124Z,2.97
2019-05-06T14:35:58.733Z,5.30
2019-05-06T14:38:28.091Z,3.83
2019-05-06T14:41:08.072Z,5.53
2019-05-06T14:43:36.828Z,3.00
2019-05-06T14:46:06.065Z,3.23
2019-05-06T14:48:35.298Z,4.27
2019-05-06T14:51:04.522Z,4.00
2019-05-06T14:53:34.034Z,2.60
2019-05-06T14:56:09.648Z,2.70
2019-05-06T14:58:39.225Z,3.53
2019-05-06T15:01:08.687Z,4.20
2019-05-06T15:03:38.205Z,4.07
2019-05-06T15:06:07.453Z,2.30
2019-05-06T15:08:36.951Z,2.70
2019-05-06T15:11:06.136Z,2.80
2019-05-06T15:13:35.381Z,2.93
2019-05-06T15:16:04.569Z,4.60
2019-05-06T15:18:33.821Z,4.30
2019-05-06T15:21:29.051Z,5.67
2019-05-06T15:23:33.914Z,6.87
2019-05-06T15:26:03.169Z,3.80
2019-05-06T15:28:33.801Z,4.27
2019-05-06T15:31:12.338Z,7.60
2019-05-06T15:33:43.507Z,6.60
2019-05-06T15:36:27.696Z,4.77
2019-05-06T15:38:56.924Z,6.07
2019-05-06T15:41:26.164Z,5.20
2019-05-06T15:43:55.352Z,6.53
2019-05-06T15:46:24.869Z,5.40
2019-05-06T15:48:54.692Z,4.73
2019-05-06T15:51:34.903Z,5.43
2019-05-06T15:54:08.463Z,4.47
2019-05-06T15:56:37.995Z,4.20
2019-05-06T15:59:07.490Z,7.67
2019-05-06T16:01:36.739Z,5.90
2019-05-06T16:04:06.549Z,5.37
2019-05-06T16:06:35.869Z,4.40
2019-05-06T16:09:06.356Z,3.73
2019-05-06T16:11:36.330Z,5.93
2019-05-06T16:14:05.840Z,5.13
2019-05-06T16:16:35.032Z,4.30
2019-05-06T16:19:04.517Z,5.73
2019-05-06T16:21:33.968Z,4.03
2019-05-06T16:24:14.079Z,4.47
2019-05-06T16:26:45.698Z,5.27
2019-05-06T16:29:14.644Z,4.13
2019-05-06T16:31:43.954Z,4.53
2019-05-06T16:34:14.640Z,5.33
2019-05-06T16:36:43.982Z,3.73
2019-05-06T16:39:13.648Z,3.73
2019-05-06T16:41:44.750Z,4.07
2019-05-06T16:44:14.208Z,4.97
2019-05-06T16:46:43.405Z,4.37
2019-05-06T16:49:14.199Z,3.90
2019-05-06T16:51:44.246Z,5.47
2019-05-06T16:54:13.487Z,3.10
2019-05-06T16:57:05.403Z,4.87
2019-05-06T16:59:34.600Z,4.33
2019-05-06T17:02:13.775Z,3.63
2019-05-06T17:04:48.440Z,4.53
2019-05-06T17:07:17.727Z,3.30
2019-05-06T17:09:47.384Z,4.97
2019-05-06T17:12:16.624Z,3.57
2019-05-06T17:14:45.810Z,4.00
2019-05-06T17:17:15.070Z,5.63
2019-05-06T17:19:44.264Z,4.10
2019-05-06T17:22:13.606Z,5.17
2019-05-06T17:24:43.094Z,7.17
2019-05-06T17:27:12.277Z,5.37
2019-05-06T17:30:00.478Z,6.77
2019-05-06T17:32:35.688Z,5.17
2019-05-06T17:35:07.529Z,4.33
2019-05-06T17:38:08.378Z,5.40
2019-05-06T17:40:37.566Z,5.63
2019-05-06T17:43:06.837Z,7.10
2019-05-06T17:45:58.285Z,8.30
2019-05-06T17:48:39.693Z,5.73
2019-05-06T17:51:14.093Z,5.50
2019-05-06T17:53:45.716Z,5.80
2019-05-06T17:56:14.899Z,6.17
2019-05-06T17:58:44.137Z,6.83
2019-05-06T18:01:14.522Z,7.67
2019-05-06T18:03:43.703Z,5.73
2019-05-06T18:06:14.187Z,6.53
2019-05-06T18:08:43.666Z,6.90
2019-05-06T18:11:13.138Z,6.90
2019-05-06T18:13:42.545Z,8.03
2019-05-06T18:16:13.218Z,5.97
2019-05-06T18:18:42.452Z,7.03
2019-05-06T18:21:12.458Z,6.57
2019-05-06T18:23:41.923Z,7.00
2019-05-06T18:26:11.190Z,6.47
2019-05-06T18:28:40.467Z,7.83
2019-05-06T18:31:10.008Z,6.73
2019-05-06T18:33:39.329Z,7.13
2019-05-06T18:36:08.577Z,6.37
2019-05-06T18:38:38.049Z,6.47
2019-05-06T18:41:07.915Z,6.80
2019-05-06T18:43:37.892Z,6.27
2019-05-06T18:46:07.130Z,7.70
2019-05-06T18:48:36.310Z,7.13
2019-05-06T18:51:05.831Z,7.83
2019-05-06T18:53:35.311Z,7.17
2019-05-06T18:56:05.175Z,7.90
2019-05-06T18:58:34.672Z,8.73
2019-05-06T19:01:04.317Z,8.27
2019-05-06T19:03:52.746Z,6.17
2019-05-06T19:06:23.220Z,5.97
2019-05-06T19:08:59.314Z,10.43
2019-05-06T19:11:28.581Z,7.17
2019-05-06T19:13:58.022Z,7.50
2019-05-06T19:16:27.504Z,6.57
2019-05-06T19:18:56.749Z,6.27
2019-05-06T19:21:25.928Z,7.87
2019-05-06T19:23:55.158Z,9.50
2019-05-06T19:26:24.347Z,6.27
2019-05-06T19:28:53.905Z,5.63
2019-05-06T19:31:23.228Z,7.00
2019-05-06T19:33:52.769Z,7.47
2019-05-06T19:36:23.475Z,7.63
2019-05-06T19:38:52.910Z,8.67
2019-05-06T19:41:22.711Z,8.20
2019-05-06T19:43:52.447Z,8.23
2019-05-06T19:46:21.664Z,6.73
2019-05-06T19:48:52.372Z,8.90
2019-05-06T19:51:22.550Z,7.63
2019-05-06T19:53:51.917Z,7.43
2019-05-06T19:56:23.168Z,7.97
2019-05-06T19:58:52.648Z,9.00
2019-05-06T20:01:22.906Z,7.30
2019-05-06T20:03:52.907Z,8.93
2019-05-06T20:06:39.380Z,10.57
2019-05-06T20:09:46.707Z,9.03
2019-05-06T20:12:58.492Z,8.40
2019-05-06T20:15:33.071Z,7.00
2019-05-06T20:18:03.041Z,8.97
2019-05-06T20:20:34.858Z,8.13
2019-05-06T20:23:03.455Z,7.03
2019-05-06T20:25:32.924Z,9.97
2019-05-06T20:28:02.464Z,7.60
2019-05-06T20:30:32.696Z,8.20
2019-05-06T20:33:02.270Z,7.47
2019-05-06T20:35:32.242Z,8.20
2019-05-06T20:38:02.749Z,7.43
2019-05-06T20:40:32.922Z,6.60
2019-05-06T20:43:14.237Z,6.77
2019-05-06T20:45:35.385Z,8.17
2019-05-06T20:48:04.097Z,7.80
2019-05-06T20:50:33.362Z,6.27
2019-05-06T20:53:02.593Z,7.63
2019-05-06T20:55:35.282Z,7.87
2019-05-06T20:58:02.867Z,6.50
2019-05-06T21:00:33.445Z,7.63
2019-05-06T21:03:02.837Z,6.53
2019-05-06T21:05:32.409Z,7.97
2019-05-06T21:08:02.354Z,8.00
2019-05-06T21:10:32.953Z,10.03
2019-05-06T21:13:02.553Z,9.13
2019-05-06T21:15:32.459Z,11.10
2019-05-06T21:18:04.207Z,7.33
2019-05-06T21:20:33.205Z,7.87
2019-05-06T21:23:02.559Z,8.53
2019-05-06T21:25:32.246Z,5.93
2019-05-06T21:28:02.872Z,7.03
2019-05-06T21:30:32.617Z,8.43
2019-05-06T21:33:01.780Z,5.73
2019-05-06T21:35:33.181Z,6.70
2019-05-06T21:38:02.627Z,8.37
2019-05-06T21:40:32.421Z,5.60
2019-05-06T21:43:02.240Z,7.23
2019-05-06T21:45:33.078Z,7.47
2019-05-06T21:48:03.161Z,5.73
2019-05-06T21:50:33.191Z,5.47
2019-05-06T21:53:02.849Z,6.03
2019-05-06T21:55:32.561Z,5.53
2019-05-06T21:58:02.328Z,5.83
2019-05-06T22:00:43.382Z,6.90
2019-05-06T22:03:13.418Z,4.73
2019-05-06T22:05:43.035Z,6.83
2019-05-06T22:08:13.002Z,7.17
2019-05-06T22:10:42.388Z,5.97
2019-05-06T22:13:14.307Z,4.93
2019-05-06T22:15:42.543Z,5.20
2019-05-06T22:18:12.484Z,6.30
2019-05-06T22:20:59.200Z,5.83
2019-05-06T22:23:47.804Z,6.73
2019-05-06T22:26:17.299Z,5.53
2019-05-06T22:28:46.541Z,5.43
2019-05-06T22:31:16.042Z,4.90
2019-05-06T22:33:45.252Z,4.80
2019-05-06T22:36:14.433Z,6.30
2019-05-06T22:38:44.296Z,6.03
2019-05-06T22:41:13.555Z,5.77
2019-05-06T22:43:42.783Z,5.80
2019-05-06T22:46:12.402Z,5.50
2019-05-06T22:48:43.361Z,5.27
2019-05-06T22:51:12.662Z,4.73
2019-05-06T22:53:42.612Z,5.40
2019-05-06T22:56:14.330Z,4.67
2019-05-06T22:58:43.570Z,4.93
2019-05-06T23:01:32.344Z,6.90
2019-05-06T23:04:02.113Z,7.50
2019-05-06T23:06:32.932Z,7.17
2019-05-06T23:09:02.636Z,5.50
2019-05-06T23:11:32.767Z,6.80
2019-05-06T23:14:02.843Z,6.57
2019-05-06T23:16:32.860Z,5.33
2019-05-06T23:19:03.016Z,5.50
2019-05-06T23:21:33.760Z,6.27
2019-05-06T23:24:03.394Z,3.97
2019-05-06T23:26:32.624Z,5.63
2019-05-06T23:29:02.551Z,4.00
2019-05-06T23:31:33.286Z,4.37
2019-05-06T23:34:04.986Z,6.13
2019-05-06T23:37:26.297Z,8.73
2019-05-06T23:40:42.558Z,5.27
2019-05-06T23:43:47.021Z,5.73
2019-05-06T23:46:52.833Z,4.40
2019-05-06T23:49:57.442Z,5.20
2019-05-06T23:53:02.929Z,5.33
2019-05-06T23:56:08.042Z,5.90
2019-05-06T23:58:37.218Z,4.93
